Terminal Aerodrome Forecast
Issued by NWS Shreveport, LA

Home | Current Version | Previous Version | Text Only | Print | Product List | Glossary On
Versions: 1 2 3 4 5 6 7 8 9 10 11 12 13 14 15 16 17 18 19 20 21
777
FTUS44 KSHV 281728
TAFGGG
TAF
KGGG 281728Z 2818/0118 20013G22KT P6SM BKN025
     FM282000 19014G24KT P6SM BKN035
     FM010600 20014KT P6SM BKN025
     FM011200 28011KT P6SM SCT025
     FM011500 33013G20KT P6SM SKC=

USA.gov is the U.S. government's official web portal to all federal, state and local government web resources and services.